Time;durP1;ratioP1;P1;durP2;ratioP2;P2;SDS_P1;SDS_P2;PMS_P1;PMS_P2;Temp;Humidity;BMP_temperature;BMP_pressure;BME280_temperature;BME280_humidity;BME280_pressure;Samples;Min_cycle;Max_cycle;Signal;HPM_P1;HPM_P2
2022/03/22 00:01:35;;;;;;;3.77;3.47;;;;;;;17.41;41.46;98681.63;4945840;29;20291;-87
2022/03/22 00:04:03;;;;;;;3.67;3.37;;;;;;;17.57;41.68;98686.94;4930042;29;20694;-85
2022/03/22 00:06:30;;;;;;;3.87;3.50;;;;;;;18.74;41.00;98921.69;4929257;29;20205;-88
2022/03/22 00:08:56;;;;;;;3.93;3.63;;;;;;;16.99;41.38;98624.69;4929630;29;20297;-87
2022/03/22 00:11:23;;;;;;;3.70;3.40;;;;;;;17.00;41.56;98616.28;4917550;29;20303;-87
2022/03/22 00:13:50;;;;;;;4.07;3.67;;;;;;;18.03;41.69;98767.00;4901309;29;20259;-88
2022/03/22 00:16:16;;;;;;;3.80;3.50;;;;;;;16.43;41.60;98494.06;4933302;29;20294;-87
2022/03/22 00:19:03;;;;;;;4.27;3.87;;;;;;;17.88;41.60;98751.63;4906571;29;20291;-88
2022/03/22 00:21:30;;;;;;;3.60;3.30;;;;;;;18.72;41.61;98885.03;4914214;29;20305;-86
2022/03/22 00:23:57;;;;;;;3.57;3.27;;;;;;;18.57;41.82;98879.88;4910125;29;20319;-87
2022/03/22 00:26:23;;;;;;;4.20;3.80;;;;;;;18.13;41.73;98789.66;4915913;29;20201;-87
2022/03/22 00:28:50;;;;;;;4.00;3.70;;;;;;;17.46;41.86;98672.66;4914056;29;20212;-87
2022/03/22 00:31:18;;;;;;;4.13;3.73;;;;;;;16.93;41.86;98587.06;4932360;29;20197;-87
2022/03/22 00:33:45;;;;;;;4.20;3.80;;;;;;;17.35;41.64;98663.44;4916650;29;20721;-87
2022/03/22 00:36:13;;;;;;;4.07;3.70;;;;;;;18.09;41.66;98786.03;4913688;29;20280;-87
2022/03/22 00:38:40;;;;;;;3.93;3.63;;;;;;;15.56;41.42;98342.16;4921690;29;20208;-87
2022/03/22 00:41:06;;;;;;;4.20;3.80;;;;;;;13.57;42.19;98062.16;4901717;29;20203;-87
2022/03/22 00:43:36;;;;;;;4.17;3.77;;;;;;;15.96;42.04;98426.75;4931981;29;20361;-88
2022/03/22 00:46:04;;;;;;;3.90;3.53;;;;;;;17.56;41.59;98702.94;4914606;29;20489;-87
2022/03/22 00:48:32;;;;;;;3.83;3.50;;;;;;;15.13;41.62;98299.56;4917152;29;20223;-87
2022/03/22 00:50:59;;;;;;;4.03;3.63;;;;;;;16.41;42.96;98515.94;4929406;29;20224;-87
2022/03/22 00:53:26;;;;;;;4.23;3.83;;;;;;;18.10;41.87;98795.47;4913559;29;20236;-87
2022/03/22 00:55:53;;;;;;;3.70;3.40;;;;;;;17.89;41.54;98777.97;4934138;29;20316;-88
2022/03/22 00:58:19;;;;;;;3.90;3.60;;;;;;;17.65;41.64;98711.16;4916826;29;20203;-86
2022/03/22 01:00:47;;;;;;;3.93;3.63;;;;;;;17.55;41.74;98698.66;4900170;29;20232;-87
2022/03/22 01:03:15;;;;;;;3.53;3.23;;;;;;;17.60;41.47;98748.13;4885210;29;20223;-87
2022/03/22 01:05:42;;;;;;;4.17;3.77;;;;;;;16.79;41.82;98607.28;4913850;29;20259;-87
2022/03/22 01:08:10;;;;;;;3.90;3.60;;;;;;;18.48;41.98;98886.97;4913083;29;20710;-87
2022/03/22 01:10:44;;;;;;;4.40;3.87;;;;;;;16.72;41.78;98593.28;4886331;29;20286;-87
2022/03/22 01:13:11;;;;;;;3.77;3.47;;;;;;;17.70;41.67;98729.25;4910096;29;20259;-88
2022/03/22 01:15:39;;;;;;;4.00;3.67;;;;;;;17.68;41.82;98716.44;4897460;29;20844;-87
2022/03/22 01:18:07;;;;;;;4.20;3.80;;;;;;;18.16;41.88;98813.66;4913682;29;20197;-87
2022/03/22 01:20:37;;;;;;;4.03;3.63;;;;;;;18.47;41.70;98858.84;4916436;29;20204;-87
2022/03/22 01:23:05;;;;;;;4.00;3.70;;;;;;;17.58;41.50;98714.09;4934918;29;20232;-86
2022/03/22 01:25:34;;;;;;;4.13;3.73;;;;;;;17.30;41.80;98656.31;4951403;29;20208;-87
2022/03/22 01:28:03;;;;;;;4.20;3.80;;;;;;;17.73;42.21;98729.44;4919383;29;20201;-91
2022/03/22 01:30:29;;;;;;;4.10;3.70;;;;;;;17.59;42.03;98710.78;4947286;29;20215;-92
2022/03/22 01:32:56;;;;;;;4.00;3.43;;;;;;;17.30;41.27;98694.44;4971275;28;20207;-93
2022/03/22 01:35:28;;;;;;;3.93;3.63;;;;;;;14.95;42.57;98285.66;4940715;29;20292;-93
2022/03/22 01:37:55;;;;;;;3.60;3.30;;;;;;;13.96;41.68;98062.31;4933178;29;20179;-93
2022/03/22 01:40:23;;;;;;;3.60;3.30;;;;;;;13.94;41.76;98137.13;4930706;28;20188;-93
2022/03/22 01:42:50;;;;;;;4.27;3.90;;;;;;;12.66;41.50;97910.19;4952457;28;20277;-93
2022/03/22 01:45:17;;;;;;;3.83;3.53;;;;;;;12.54;41.83;97848.84;4948919;29;20177;-93
2022/03/22 01:47:46;;;;;;;4.00;3.63;;;;;;;17.13;41.93;98680.66;4930307;29;20201;-93
2022/03/22 01:50:15;;;;;;;4.30;3.90;;;;;;;11.45;41.29;97656.44;4948736;29;20219;-94
2022/03/22 01:52:43;;;;;;;4.00;3.70;;;;;;;14.92;41.89;98280.41;4924826;29;20204;-93
2022/03/22 01:55:12;;;;;;;4.30;3.90;;;;;;;13.64;41.23;98005.34;4917955;29;20189;-92
2022/03/22 01:57:43;;;;;;;3.90;3.60;;;;;;;14.90;41.66;98289.56;4934229;28;20173;-94
2022/03/22 02:00:14;;;;;;;4.27;3.97;;;;;;;13.67;41.79;98067.03;4949211;29;20212;-93
2022/03/22 02:08:16;;;;;;;4.07;3.67;;;;;;;15.06;41.63;98225.63;4938249;29;20173;-93
2022/03/22 02:10:44;;;;;;;4.00;3.70;;;;;;;15.10;41.67;98268.97;4933984;29;20223;-93
2022/03/22 02:13:11;;;;;;;4.00;3.70;;;;;;;13.93;41.49;98016.63;4952000;28;20264;-93
2022/03/22 02:15:38;;;;;;;4.60;4.13;;;;;;;13.90;41.63;98030.69;4923093;29;20205;-87
2022/03/22 02:18:05;;;;;;;3.70;3.40;;;;;;;15.63;42.12;98349.38;4903970;29;20212;-86
2022/03/22 02:20:32;;;;;;;3.73;3.43;;;;;;;17.69;41.70;98679.19;4910158;29;20232;-87
2022/03/22 02:23:17;;;;;;;4.23;3.80;;;;;;;18.77;41.37;98864.16;4966836;23;20774;-85
2022/03/22 02:25:44;;;;;;;3.87;3.57;;;;;;;18.78;41.54;98871.03;4931597;29;20672;-85
2022/03/22 02:28:12;;;;;;;4.10;3.70;;;;;;;18.78;41.39;98865.03;4937386;29;20822;-83
2022/03/22 02:30:39;;;;;;;4.10;3.70;;;;;;;18.81;41.43;98867.78;4955330;29;20220;-85
2022/03/22 02:33:08;;;;;;;3.90;3.50;;;;;;;18.81;41.54;98863.56;4925060;29;20240;-85
2022/03/22 02:35:41;;;;;;;3.77;3.47;;;;;;;18.83;41.35;98863.66;4932925;29;20212;-86
2022/03/22 02:38:08;;;;;;;4.03;3.63;;;;;;;15.43;41.59;98266.16;4932707;29;20265;-85
2022/03/22 02:40:37;;;;;;;4.30;3.90;;;;;;;18.84;41.37;98855.22;4932280;29;20265;-86
2022/03/22 02:43:06;;;;;;;3.40;3.10;;;;;;;17.49;41.24;98665.22;4915987;29;20232;-86
2022/03/22 02:45:41;;;;;;;4.20;3.90;;;;;;;18.65;41.39;98826.88;4916534;29;20212;-79
2022/03/22 02:48:11;;;;;;;4.10;3.70;;;;;;;17.35;41.57;98592.28;4902518;29;20204;-77
2022/03/22 02:50:38;;;;;;;3.90;3.60;;;;;;;18.87;41.40;98865.59;4916971;29;20233;-77
2022/03/22 02:53:05;;;;;;;3.90;3.60;;;;;;;18.87;41.35;98861.41;4931996;29;20658;-78
2022/03/22 02:55:32;;;;;;;4.07;3.67;;;;;;;18.23;41.49;98758.91;4911420;29;20240;-79
2022/03/22 02:57:58;;;;;;;3.77;3.47;;;;;;;18.88;41.13;98872.44;4911571;29;20630;-78
2022/03/22 03:00:26;;;;;;;3.43;3.13;;;;;;;18.10;41.26;98729.31;4927372;29;20564;-78
2022/03/22 03:02:53;;;;;;;4.00;3.70;;;;;;;17.90;41.30;98698.31;4930964;29;20641;-78
2022/03/22 03:05:22;;;;;;;3.90;3.60;;;;;;;16.89;41.42;98543.59;4902362;29;20320;-78
2022/03/22 03:07:50;;;;;;;3.87;3.57;;;;;;;17.83;41.25;98689.44;4917775;29;20211;-78
2022/03/22 03:10:17;;;;;;;3.67;3.37;;;;;;;18.88;41.40;98869.91;4883390;29;20624;-74
2022/03/22 03:12:43;;;;;;;4.13;3.77;;;;;;;17.70;41.29;98660.59;4914475;29;20339;-78
2022/03/22 03:15:10;;;;;;;4.23;3.83;;;;;;;18.59;41.36;98824.81;4907287;29;20437;-77
2022/03/22 03:17:37;;;;;;;3.90;3.60;;;;;;;17.83;40.76;98691.09;4913051;29;20560;-78
2022/03/22 03:20:05;;;;;;;4.13;3.63;;;;;;;18.85;41.41;98868.06;4935091;29;20205;-78
2022/03/22 03:22:39;;;;;;;4.27;3.87;;;;;;;18.86;41.30;98871.50;4901897;29;20240;-77
2022/03/22 03:25:08;;;;;;;3.70;3.30;;;;;;;18.86;41.35;98874.03;4905077;29;20233;-78
2022/03/22 03:27:35;;;;;;;3.70;3.40;;;;;;;18.85;41.35;98878.25;4901457;29;20773;-78
2022/03/22 03:30:06;;;;;;;3.60;3.30;;;;;;;15.31;41.11;98287.25;4918892;29;20257;-85
2022/03/22 03:32:33;;;;;;;4.30;3.90;;;;;;;18.84;41.19;98873.94;4898933;29;20316;-85
2022/03/22 03:34:59;;;;;;;3.80;3.50;;;;;;;18.83;41.29;98884.03;4931562;29;20201;-86
2022/03/22 03:37:29;;;;;;;3.67;3.37;;;;;;;18.83;41.42;98881.50;4914757;29;20303;-85
2022/03/22 03:39:56;;;;;;;3.50;3.20;;;;;;;18.82;41.38;98887.34;4931034;29;20292;-86
2022/03/22 03:42:24;;;;;;;4.00;3.70;;;;;;;18.50;41.47;98831.03;4931909;29;20292;-85
2022/03/22 03:47:36;;;;;;;3.70;3.40;;;;;;;18.79;41.67;98893.16;4918048;29;20244;-85
2022/03/22 03:50:05;;;;;;;3.87;3.57;;;;;;;18.78;41.51;98888.84;4931574;29;20312;-86
2022/03/22 03:52:33;;;;;;;3.50;3.20;;;;;;;18.79;41.36;98884.63;4914771;29;20232;-85
2022/03/22 03:55:00;;;;;;;3.80;3.50;;;;;;;18.79;41.38;98882.06;4914554;29;20296;-85
2022/03/22 03:57:27;;;;;;;3.73;3.43;;;;;;;16.38;41.40;98458.25;4899270;29;20587;-86
2022/03/22 03:59:54;;;;;;;3.83;3.53;;;;;;;18.48;41.67;98830.94;4929577;29;20765;-78
2022/03/22 04:02:24;;;;;;;3.67;3.37;;;;;;;18.79;41.37;98889.72;4932785;29;20494;-78
2022/03/22 04:04:55;;;;;;;3.73;3.43;;;;;;;18.79;41.38;98893.16;4930149;29;20209;-78
2022/03/22 04:07:23;;;;;;;4.20;3.80;;;;;;;16.63;41.35;98531.78;4904034;29;20484;-78
2022/03/22 04:09:56;;;;;;;3.90;3.60;;;;;;;18.79;41.49;98893.16;4902989;29;20213;-73
2022/03/22 04:12:22;;;;;;;4.27;3.87;;;;;;;18.80;41.33;98882.16;4932013;29;20233;-79
2022/03/22 04:14:51;;;;;;;4.03;3.70;;;;;;;18.81;41.54;98891.59;4930623;29;20312;-77
2022/03/22 04:17:18;;;;;;;3.87;3.53;;;;;;;18.51;40.92;98836.22;4932750;29;20233;-75
2022/03/22 04:19:45;;;;;;;3.63;3.33;;;;;;;18.84;41.38;98913.81;4898044;29;20741;-77
2022/03/22 04:22:12;;;;;;;3.97;3.57;;;;;;;18.29;41.32;98802.53;4916202;29;20256;-78
2022/03/22 04:24:38;;;;;;;4.03;3.63;;;;;;;18.83;41.42;98890.00;4883161;29;20640;-77
2022/03/22 04:32:44;;;;;;;3.43;3.13;;;;;;;18.83;41.27;98891.69;4907505;29;20266;-86
2022/03/22 04:35:17;;;;;;;3.90;3.60;;;;;;;18.71;41.25;98876.50;4904962;29;20709;-85
2022/03/22 04:37:49;;;;;;;3.70;3.23;;;;;;;18.81;41.40;98896.69;4893065;29;20639;-85
2022/03/22 04:40:16;;;;;;;3.83;3.53;;;;;;;18.34;41.27;98813.91;4903819;29;20205;-82
2022/03/22 04:42:43;;;;;;;3.70;3.30;;;;;;;18.80;41.58;98896.59;4896322;29;20319;-83
2022/03/22 04:45:09;;;;;;;3.70;3.40;;;;;;;18.03;41.39;98760.22;4910753;29;20228;-85
2022/03/22 04:47:36;;;;;;;3.90;3.50;;;;;;;17.94;41.27;98746.03;4914275;29;20765;-86
2022/03/22 04:50:04;;;;;;;3.50;3.20;;;;;;;18.79;41.40;98894.81;4898288;29;20645;-85
2022/03/22 04:58:02;;;;;;;3.57;3.27;;;;;;;18.52;41.56;98876.16;4898436;29;20671;-79
2022/03/22 05:00:28;;;;;;;3.87;3.47;;;;;;;17.65;41.32;98707.75;4918909;29;20269;-77
2022/03/22 05:02:55;;;;;;;4.07;3.73;;;;;;;18.78;41.36;98908.34;4894347;29;20237;-78
2022/03/22 05:08:07;;;;;;;3.80;3.50;;;;;;;18.58;40.90;98868.00;4917657;29;20217;-77
2022/03/22 05:10:34;;;;;;;3.90;3.50;;;;;;;17.40;41.32;98672.25;4903498;29;20245;-77
2022/03/22 05:13:01;;;;;;;3.90;3.50;;;;;;;18.79;41.16;98916.06;4896786;29;20315;-76
2022/03/22 05:15:27;;;;;;;3.73;3.43;;;;;;;18.81;41.34;98916.16;4919781;29;20209;-76
2022/03/22 05:17:56;;;;;;;3.80;3.40;;;;;;;18.81;41.08;98911.97;4919070;29;20244;-79
2022/03/22 05:20:23;;;;;;;4.27;3.90;;;;;;;18.81;41.18;98908.53;4896726;29;20630;-75
2022/03/22 05:22:49;;;;;;;3.70;3.40;;;;;;;18.81;41.38;98908.53;4920226;29;20237;-77
2022/03/22 05:25:16;;;;;;;3.63;3.33;;;;;;;18.46;41.27;98850.34;4889056;29;20264;-77
2022/03/22 05:27:45;;;;;;;3.50;3.20;;;;;;;16.94;41.48;98620.94;4929097;29;20683;-78
2022/03/22 05:30:13;;;;;;;3.63;3.33;;;;;;;17.82;41.45;98738.53;4928439;29;20821;-77
2022/03/22 05:32:40;;;;;;;4.70;4.30;;;;;;;18.79;40.63;98910.09;4908436;29;20782;-77
2022/03/22 05:35:07;;;;;;;5.47;4.30;;;;;;;18.78;39.97;98913.44;4910682;29;20209;-78
2022/03/22 05:37:34;;;;;;;4.70;3.97;;;;;;;18.77;40.26;98907.44;4933114;29;20240;-77
2022/03/22 05:40:00;;;;;;;4.70;4.20;;;;;;;18.74;40.40;98914.03;4931189;29;20213;-76
2022/03/22 05:42:27;;;;;;;4.73;4.33;;;;;;;18.76;40.96;98915.88;4929299;29;20382;-76
2022/03/22 05:44:54;;;;;;;4.50;4.10;;;;;;;18.75;40.33;98913.25;4913364;29;20212;-74
2022/03/22 05:47:20;;;;;;;4.20;3.80;;;;;;;18.75;40.49;98915.78;4913552;29;20312;-76
2022/03/22 05:49:47;;;;;;;4.20;3.80;;;;;;;18.40;40.43;98860.13;4911454;29;20213;-76
2022/03/22 05:52:14;;;;;;;4.03;3.73;;;;;;;18.22;40.76;98828.41;4915082;29;20281;-77
2022/03/22 05:54:40;;;;;;;4.20;3.80;;;;;;;18.74;40.69;98921.69;4898818;29;20201;-77
2022/03/22 05:57:07;;;;;;;4.10;3.80;;;;;;;18.71;40.79;98919.78;4883175;29;20206;-76
2022/03/22 05:59:33;;;;;;;4.20;3.80;;;;;;;18.74;40.97;98929.31;4911448;29;20252;-77
2022/03/22 06:02:00;;;;;;;5.20;4.70;;;;;;;18.74;39.65;98926.78;4914604;29;20300;-78
2022/03/22 06:04:27;;;;;;;9.03;5.70;;;;;;;17.96;38.17;98800.44;4926883;29;20205;-77
2022/03/22 06:06:53;;;;;;;6.43;5.43;;;;;;;16.18;38.02;98483.13;4882644;29;20215;-78
2022/03/22 06:09:20;;;;;;;6.57;5.53;;;;;;;18.71;37.80;98926.59;4884952;29;20229;-78
2022/03/22 06:11:47;;;;;;;5.97;5.37;;;;;;;18.71;39.05;98936.75;4898702;29;20312;-76
2022/03/22 06:14:13;;;;;;;7.67;5.50;;;;;;;18.70;39.23;98933.31;4898124;29;20531;-79
2022/03/22 06:16:40;;;;;;;6.07;5.47;;;;;;;18.29;39.69;98867.84;4900152;29;20719;-77
2022/03/22 06:19:07;;;;;;;5.83;5.23;;;;;;;18.19;39.86;98856.19;4929292;29;20695;-77
2022/03/22 06:21:34;;;;;;;9.40;5.40;;;;;;;18.38;39.82;98882.06;4902016;29;20667;-77
2022/03/22 06:24:00;;;;;;;5.37;4.87;;;;;;;18.21;40.33;98857.19;4918127;29;20332;-78
2022/03/22 06:26:27;;;;;;;6.40;4.80;;;;;;;18.67;40.17;98940.78;4918168;29;20205;-78
2022/03/22 06:28:54;;;;;;;5.90;5.30;;;;;;;17.84;40.25;98798.00;4917400;29;20236;-77
2022/03/22 06:31:20;;;;;;;5.57;4.97;;;;;;;17.73;40.16;98771.00;4907699;29;20307;-78
2022/03/22 06:33:47;;;;;;;5.33;4.60;;;;;;;18.66;40.24;98944.13;4922633;29;20229;-77
2022/03/22 06:36:14;;;;;;;6.10;4.37;;;;;;;18.66;40.57;98940.69;4908564;29;20244;-77
2022/03/22 06:38:41;;;;;;;5.07;4.67;;;;;;;18.33;40.36;98880.88;4905289;29;20311;-77
2022/03/22 06:41:07;;;;;;;4.67;4.27;;;;;;;18.21;40.25;98867.38;4899496;29;20233;-78
2022/03/22 06:43:34;;;;;;;7.00;4.70;;;;;;;17.88;40.16;98809.22;4909341;29;20280;-78
2022/03/22 06:46:00;;;;;;;5.40;4.90;;;;;;;18.27;40.18;98878.78;4902800;29;20239;-77
2022/03/22 06:48:27;;;;;;;4.93;4.43;;;;;;;18.32;41.11;98883.31;4935662;29;20209;-78
2022/03/22 06:50:54;;;;;;;5.00;4.50;;;;;;;18.37;40.50;98887.94;4934744;29;20295;-77
2022/03/22 06:53:20;;;;;;;5.30;4.80;;;;;;;18.65;40.69;98947.44;4902548;29;20335;-76
2022/03/22 06:55:47;;;;;;;4.77;4.23;;;;;;;18.65;40.24;98949.97;4918273;29;20614;-76
2022/03/22 06:58:18;;;;;;;5.03;4.53;;;;;;;18.65;40.72;98956.75;4918620;29;20208;-79
2022/03/22 07:00:46;;;;;;;5.20;4.70;;;;;;;18.65;40.43;98965.25;4934875;29;20208;-77
2022/03/22 07:03:13;;;;;;;4.80;4.40;;;;;;;17.41;40.79;98741.75;4934799;29;20312;-77
2022/03/22 07:05:42;;;;;;;4.87;4.37;;;;;;;17.82;40.79;98808.84;4895331;29;20221;-77
2022/03/22 07:08:09;;;;;;;4.83;4.43;;;;;;;18.65;40.74;98961.84;4915617;29;20287;-78
2022/03/22 07:10:35;;;;;;;4.70;4.23;;;;;;;16.44;40.76;98580.47;4896554;29;20214;-77
2022/03/22 07:13:04;;;;;;;5.10;4.47;;;;;;;18.21;40.82;98890.28;4885958;29;20839;-77
2022/03/22 07:15:33;;;;;;;5.10;4.60;;;;;;;17.19;40.92;98715.72;4900238;29;21151;-78
2022/03/22 07:18:03;;;;;;;4.63;4.20;;;;;;;17.16;40.81;98716.41;4883657;29;20726;-79
2022/03/22 07:20:30;;;;;;;4.07;3.77;;;;;;;18.05;40.76;98867.16;4885468;29;20639;-78
2022/03/22 07:22:58;;;;;;;4.70;4.03;;;;;;;18.64;41.07;98975.34;4883997;29;20746;-79
2022/03/22 07:25:25;;;;;;;4.27;3.83;;;;;;;17.85;40.64;98840.44;4899811;29;20213;-78
2022/03/22 07:27:52;;;;;;;4.30;3.90;;;;;;;18.36;40.78;98925.97;4899792;29;20245;-78
2022/03/22 07:30:18;;;;;;;4.83;4.43;;;;;;;18.64;40.89;98980.44;4883594;29;20301;-79
2022/03/22 07:32:45;;;;;;;4.30;3.90;;;;;;;18.02;40.75;98870.41;4884410;29;20308;-77
2022/03/22 07:35:12;;;;;;;4.60;4.20;;;;;;;18.34;40.79;98928.44;4883637;29;20329;-78
2022/03/22 07:37:39;;;;;;;4.53;4.13;;;;;;;18.32;40.80;98922.34;4899832;29;20616;-78
2022/03/22 07:40:09;;;;;;;4.30;3.90;;;;;;;18.63;40.79;98973.59;4867708;29;20265;-76
2022/03/22 07:42:37;;;;;;;4.67;3.87;;;;;;;18.30;41.11;98921.41;4899314;29;20284;-78
2022/03/22 07:45:08;;;;;;;4.30;3.90;;;;;;;18.63;40.99;98979.56;4881809;29;20241;-78
2022/03/22 07:47:34;;;;;;;4.77;4.27;;;;;;;17.99;41.08;98867.66;4923171;29;20280;-80
2022/03/22 07:53:01;;;;;;;4.50;4.10;;;;;;;17.94;41.02;98858.84;4901696;29;20348;-77
2022/03/22 07:55:35;;;;;;;4.67;4.27;;;;;;;18.63;41.04;98987.22;4872298;29;20241;-80
2022/03/22 07:58:05;;;;;;;4.60;4.20;;;;;;;18.63;40.85;98983.78;4884054;29;20206;-78
2022/03/22 08:00:34;;;;;;;3.90;3.60;;;;;;;18.36;41.19;98939.59;4915818;29;20210;-79
2022/03/22 08:03:03;;;;;;;4.77;4.13;;;;;;;18.62;41.11;98982.88;4899865;29;20238;-77
2022/03/22 08:05:32;;;;;;;4.53;3.80;;;;;;;18.62;40.88;98987.13;4916192;29;20210;-77
2022/03/22 08:07:59;;;;;;;5.23;3.90;;;;;;;18.31;41.21;98934.97;4904494;29;20261;-77
2022/03/22 08:10:45;;;;;;;5.03;4.10;;;;;;;18.61;41.16;98991.31;4905476;29;20211;-77
2022/03/22 08:13:12;;;;;;;4.03;3.70;;;;;;;18.62;41.00;98992.22;4916630;29;20714;-78
2022/03/22 08:15:39;;;;;;;4.27;3.87;;;;;;;18.60;41.02;98988.69;4915197;29;20626;-78
2022/03/22 08:18:06;;;;;;;4.73;4.00;;;;;;;18.61;40.94;98988.78;4889573;29;20219;-76
2022/03/22 08:20:32;;;;;;;4.20;3.80;;;;;;;17.77;41.30;98848.38;4897732;29;20335;-77
2022/03/22 08:23:05;;;;;;;4.37;3.97;;;;;;;18.38;41.11;98960.94;4913948;23;20228;-85
2022/03/22 08:25:38;;;;;;;3.97;3.57;;;;;;;18.20;40.91;98927.53;4904119;29;20236;-87
2022/03/22 08:28:09;;;;;;;4.70;4.07;;;;;;;18.34;41.08;98970.81;4923274;29;20200;-86
2022/03/22 08:30:37;;;;;;;4.27;3.90;;;;;;;17.23;41.00;98743.09;4905063;29;20709;-85
2022/03/22 08:33:09;;;;;;;4.47;4.07;;;;;;;17.94;41.22;98874.09;4920960;29;20232;-85
2022/03/22 08:35:41;;;;;;;5.73;3.80;;;;;;;17.96;41.16;98872.53;4891310;29;20813;-87
2022/03/22 08:38:08;;;;;;;4.17;3.70;;;;;;;18.44;41.12;98950.31;4892363;29;20672;-87
2022/03/22 08:40:35;;;;;;;3.90;3.50;;;;;;;16.92;41.17;98685.97;4867602;29;20296;-87
2022/03/22 08:43:05;;;;;;;4.10;3.70;;;;;;;18.40;41.12;98959.41;4885753;29;20257;-87
2022/03/22 08:45:33;;;;;;;5.20;4.07;;;;;;;18.61;41.19;98981.13;4900165;29;20232;-88
2022/03/22 08:48:01;;;;;;;5.07;3.77;;;;;;;17.98;41.10;98865.91;4883684;29;20201;-87
2022/03/22 08:50:28;;;;;;;4.10;3.70;;;;;;;17.45;41.34;98762.41;4884352;29;20288;-87
2022/03/22 08:52:56;;;;;;;4.10;3.70;;;;;;;16.79;41.30;98648.78;4899409;29;20248;-87
2022/03/22 08:55:23;;;;;;;4.40;4.00;;;;;;;17.10;41.28;98721.09;4884571;29;20220;-87
2022/03/22 08:57:50;;;;;;;4.93;4.00;;;;;;;18.14;41.04;98890.63;4899571;29;20702;-88
2022/03/22 09:00:17;;;;;;;4.37;3.97;;;;;;;18.23;41.07;98909.94;4884391;29;20324;-87
2022/03/22 09:02:45;;;;;;;4.53;3.73;;;;;;;13.20;41.15;98022.50;4884158;29;20652;-87
2022/03/22 09:07:58;;;;;;;3.77;3.47;;;;;;;18.02;41.33;98888.19;4889874;29;20201;-86
2022/03/22 09:10:30;;;;;;;3.90;3.60;;;;;;;18.18;41.12;98885.00;4880522;29;20210;-87
2022/03/22 09:12:57;;;;;;;3.97;3.60;;;;;;;17.10;41.11;98697.34;4865075;29;20253;-88
2022/03/22 09:15:28;;;;;;;3.57;3.27;;;;;;;17.21;40.84;98704.91;4865045;29;20217;-86
2022/03/22 09:17:55;;;;;;;4.27;3.87;;;;;;;18.59;41.10;98980.13;4881457;29;20695;-87
2022/03/22 09:20:22;;;;;;;3.53;3.23;;;;;;;17.98;41.11;98845.56;4865100;29;20296;-87
2022/03/22 09:22:51;;;;;;;4.10;3.70;;;;;;;16.68;41.26;98614.19;4865313;29;20285;-88
2022/03/22 09:25:21;;;;;;;3.37;3.07;;;;;;;17.54;41.17;98787.53;4865188;29;20186;-87
2022/03/22 09:27:48;;;;;;;3.90;3.60;;;;;;;18.18;41.00;98874.81;4880865;29;20240;-87
2022/03/22 09:30:15;;;;;;;3.83;3.53;;;;;;;18.04;41.21;98855.22;4865506;29;20679;-86
2022/03/22 09:32:44;;;;;;;4.20;3.80;;;;;;;18.20;41.35;98881.75;4865148;29;20761;-87
2022/03/22 09:35:12;;;;;;;4.03;3.63;;;;;;;18.15;41.32;98874.63;4881249;29;20668;-88
2022/03/22 09:37:38;;;;;;;3.93;3.53;;;;;;;17.77;41.21;98822.94;4865009;29;20251;-87
2022/03/22 09:40:05;;;;;;;3.90;3.60;;;;;;;17.93;40.97;98830.75;4864988;29;20624;-86
2022/03/22 09:42:32;;;;;;;3.80;3.50;;;;;;;18.49;41.16;98931.97;4868435;29;20305;-88
2022/03/22 09:45:00;;;;;;;4.00;3.60;;;;;;;17.57;40.98;98762.31;4883826;29;20289;-87
2022/03/22 09:47:27;;;;;;;4.23;3.83;;;;;;;17.91;41.23;98824.69;4868643;29;20700;-87
2022/03/22 09:49:55;;;;;;;3.40;3.10;;;;;;;17.17;41.58;98696.97;4869163;29;20752;-88
2022/03/22 09:52:22;;;;;;;3.53;3.13;;;;;;;17.21;41.29;98704.91;4868183;29;20641;-83
2022/03/22 09:54:48;;;;;;;3.70;3.40;;;;;;;17.24;41.21;98699.13;4868297;29;20218;-87
2022/03/22 09:57:16;;;;;;;3.77;3.40;;;;;;;17.55;41.03;98763.84;4874493;29;20276;-87
2022/03/22 09:59:43;;;;;;;3.90;3.50;;;;;;;17.05;41.25;98665.69;4894681;29;20296;-86
2022/03/22 10:02:10;;;;;;;3.70;3.40;;;;;;;17.63;41.52;98778.84;4898877;29;20601;-87
2022/03/22 10:04:41;;;;;;;3.90;3.30;;;;;;;18.07;41.11;98835.06;4883851;29;20240;-87
2022/03/22 10:07:17;;;;;;;4.07;3.67;;;;;;;18.40;41.28;98894.88;4883493;29;20320;-86
2022/03/22 10:09:56;;;;;;;3.40;3.10;;;;;;;18.03;40.90;98854.34;4898950;29;20236;-87
2022/03/22 10:12:36;;;;;;;3.67;3.37;;;;;;;17.80;41.07;98798.56;4898584;29;20575;-86
2022/03/22 10:15:13;;;;;;;3.50;3.20;;;;;;;18.20;41.12;98863.03;4883465;29;20289;-87
2022/03/22 10:17:40;;;;;;;3.80;3.50;;;;;;;17.83;41.18;98782.66;4883824;29;20739;-87
2022/03/22 10:20:08;;;;;;;4.00;3.70;;;;;;;17.81;40.99;98785.09;4899345;29;20229;-86
2022/03/22 10:22:35;;;;;;;3.90;3.50;;;;;;;18.18;41.39;98842.59;4882951;29;20293;-86
2022/03/22 10:25:05;;;;;;;3.37;3.07;;;;;;;17.80;41.38;98762.13;4882844;29;20247;-87
2022/03/22 10:27:34;;;;;;;3.60;3.30;;;;;;;18.18;41.13;98827.31;4882579;29;20711;-87
2022/03/22 10:30:23;;;;;;;3.40;3.10;;;;;;;17.06;41.59;98635.31;4888474;29;20209;-87
2022/03/22 10:32:53;;;;;;;3.13;2.93;;;;;;;17.58;41.36;98721.72;4882979;29;20249;-86
2022/03/22 10:35:22;;;;;;;3.90;3.50;;;;;;;18.61;41.33;98903.84;4898798;29;20245;-87
2022/03/22 10:38:03;;;;;;;3.63;3.33;;;;;;;18.26;41.04;98842.22;4914953;29;20680;-87
2022/03/22 10:40:29;;;;;;;3.83;3.50;;;;;;;18.60;41.60;98897.91;4883120;29;20193;-88
2022/03/22 10:43:06;;;;;;;3.70;3.40;;;;;;;18.17;41.40;98829.78;4898192;29;20324;-87
2022/03/22 10:46:01;;;;;;;3.50;3.17;;;;;;;17.93;41.23;98780.78;4898462;29;20563;-88
2022/03/22 10:48:34;;;;;;;3.67;3.37;;;;;;;17.80;41.28;98757.03;4883547;29;20209;-88
2022/03/22 10:51:01;;;;;;;3.50;3.20;;;;;;;18.23;41.34;98851.41;4882628;29;20221;-86
2022/03/22 10:53:29;;;;;;;3.80;3.40;;;;;;;17.74;41.37;98760.03;4881358;29;20253;-86
2022/03/22 10:55:59;;;;;;;3.50;3.20;;;;;;;17.21;41.45;98653.19;4882379;29;20301;-86
2022/03/22 10:58:27;;;;;;;3.80;3.43;;;;;;;17.48;41.24;98694.00;4882863;29;20201;-88
2022/03/22 11:00:54;;;;;;;3.80;3.50;;;;;;;17.74;40.90;98770.22;4897913;29;20272;-85
2022/03/22 11:03:21;;;;;;;3.80;3.50;;;;;;;17.85;41.48;98769.25;4913641;29;20237;-87
2022/03/22 11:05:52;;;;;;;3.77;3.37;;;;;;;18.14;41.40;98806.69;4897702;29;20217;-86
2022/03/22 11:08:23;;;;;;;3.60;3.30;;;;;;;18.23;41.31;98820.88;4916719;29;20299;-88
2022/03/22 11:10:51;;;;;;;3.80;3.50;;;;;;;18.04;41.42;98789.97;4901421;29;20220;-88
2022/03/22 11:13:17;;;;;;;3.50;3.20;;;;;;;17.56;41.23;98732.59;4885971;29;20312;-88
2022/03/22 11:15:45;;;;;;;3.67;3.30;;;;;;;17.17;41.26;98647.03;4885956;29;20217;-88
2022/03/22 11:18:13;;;;;;;3.60;3.30;;;;;;;18.10;41.42;98797.09;4901335;29;20219;-88
2022/03/22 11:21:15;;;;;;;3.63;3.33;;;;;;;18.61;41.55;98875.84;4901103;29;20304;-88
2022/03/22 11:23:44;;;;;;;4.13;3.73;;;;;;;17.83;41.18;98747.91;4877259;29;20714;-87
2022/03/22 11:26:12;;;;;;;3.63;3.33;;;;;;;18.25;41.38;98818.41;4886082;29;20240;-87
2022/03/22 11:28:39;;;;;;;3.43;3.13;;;;;;;18.27;41.06;98813.44;4885473;29;20300;-86
2022/03/22 11:31:09;;;;;;;3.30;3.00;;;;;;;17.57;41.82;98689.47;4885425;29;20699;-88
2022/03/22 11:36:28;;;;;;;3.33;3.03;;;;;;;17.88;41.53;98732.94;4906447;29;20239;-87
2022/03/22 11:38:56;;;;;;;3.17;2.87;;;;;;;17.98;41.27;98786.16;4886190;29;20204;-88
2022/03/22 11:44:23;;;;;;;3.60;3.30;;;;;;;18.15;41.38;98778.78;4919069;29;20791;-88
2022/03/22 11:47:14;;;;;;;3.93;3.53;;;;;;;18.60;41.38;98861.38;4886231;29;20205;-86
2022/03/22 11:50:01;;;;;;;3.70;3.30;;;;;;;17.95;41.35;98751.22;4900794;29;20190;-87
2022/03/22 11:52:35;;;;;;;3.30;3.00;;;;;;;18.59;41.68;98849.44;4885026;29;20667;-87
2022/03/22 12:27:53;;;;;;;3.37;3.07;;;;;;;13.09;41.15;97914.94;4978229;28;20264;-93
2022/03/22 12:35:38;;;;;;;3.43;3.13;;;;;;;12.49;41.26;97745.19;5053549;23;20240;-92
2022/03/22 12:38:04;;;;;;;2.90;2.70;;;;;;;17.96;41.22;98686.88;5039978;23;20235;-87
2022/03/22 12:40:31;;;;;;;3.30;3.00;;;;;;;18.14;41.47;98718.53;4923184;29;20200;-87
2022/03/22 12:42:58;;;;;;;3.33;3.03;;;;;;;18.01;41.45;98680.41;4926368;29;20319;-86
2022/03/22 12:45:26;;;;;;;3.47;2.67;;;;;;;18.52;41.24;98774.34;4915277;29;20243;-86
2022/03/22 12:47:53;;;;;;;3.10;2.80;;;;;;;18.14;40.88;98690.53;4932854;29;20256;-87
2022/03/22 12:50:20;;;;;;;2.90;2.70;;;;;;;17.15;41.13;98514.00;4909552;29;20203;-86
2022/03/22 12:52:49;;;;;;;3.47;3.17;;;;;;;17.22;41.22;98528.81;4896569;29;20224;-86